^^
Station Historical Data
Daily Summary for January 26, 2017 Units:  English    Metric   Both
« Previous Day
Next Day »
Daily Weekly Monthly Yearly Custom
  High: Low: Average:
Temperature: 51.9 °F 35.4 °F 41.9 °F
Dew Point: 44.0 °F 28.5 °F 32.9 °F
Humidity: 92 % 52 % 72 %
Wind Speed: 25.0 mph 0.0 mph 7.4 mph
Wind Gust: 36.8 mph - -
Wind:- - West
Pressure: 29.67 in 29.41 in -
Precipitation: 0.01 in    
Historical Graphs
 
 
Tabular Data for January 26, 2017
Time Temperature Dew Point Pressure Wind Wind Speed Wind Gust Humidity Rainfall Rate (Hourly) solar Conditions
00:03 43.2 °F 34.8 °F 29.56 in Calm     72 % 0.00 in 0.0 W/m2 CLR
00:08 42.9 °F 34.8 °F 29.55 in Calm     73 % 0.00 in 0.0 W/m2 CLR
00:13 42.6 °F 34.9 °F 29.55 in Calm     74 % 0.00 in 0.0 W/m2 CLR
00:18 42.1 °F 34.7 °F 29.55 in Calm     75 % 0.00 in 0.0 W/m2 CLR
00:23 42.0 °F 34.6 °F 29.54 in Calm     75 % 0.00 in 0.0 W/m2 CLR
00:28 41.7 °F 34.7 °F 29.55 in Calm     76 % 0.00 in 0.0 W/m2 CLR
00:33 41.6 °F 34.6 °F 29.54 in Calm     76 % 0.00 in 0.0 W/m2 CLR
00:38 41.6 °F 34.9 °F 29.54 in Calm     77 % 0.00 in 0.0 W/m2 CLR
00:43 41.5 °F 34.8 °F 29.54 in Calm     77 % 0.00 in 0.0 W/m2 CLR
00:46 41.2 °F 34.5 °F 29.54 in Calm     77 % 0.00 in 0.0 W/m2 CLR
00:50 41.2 °F 34.9 °F 29.53 in Calm     78 % 0.00 in 0.0 W/m2 CLR
00:55 40.9 °F 34.6 °F 29.53 in Calm     78 % 0.00 in 0.0 W/m2 CLR
01:00 40.8 °F 34.8 °F 29.53 in Calm     79 % 0.00 in 0.0 W/m2 CLR
01:05 40.6 °F 34.6 °F 29.53 in Calm     79 % 0.00 in 0.0 W/m2 CLR
01:10 40.2 °F 34.2 °F 29.53 in Calm     79 % 0.00 in 0.0 W/m2 CLR
01:15 39.7 °F 34.0 °F 29.53 in Calm     80 % 0.00 in 0.0 W/m2 CLR
01:20 39.7 °F 34.3 °F 29.53 in Calm     81 % 0.00 in 0.0 W/m2 CLR
01:25 39.8 °F 34.4 °F 29.53 in Calm     81 % 0.00 in 0.0 W/m2 CLR
01:30 40.0 °F 34.6 °F 29.53 in Calm     81 % 0.00 in 0.0 W/m2 CLR
01:35 39.7 °F 34.3 °F 29.54 in Calm     81 % 0.00 in 0.0 W/m2 CLR
01:40 39.4 °F 34.1 °F 29.53 in Calm     81 % 0.00 in 0.0 W/m2 CLR
01:45 39.1 °F 34.1 °F 29.54 in Calm     82 % 0.00 in 0.0 W/m2 CLR
01:50 39.4 °F 34.4 °F 29.54 in Calm   1.2 mph 82 % 0.00 in 0.0 W/m2 CLR
01:55 39.4 °F 34.4 °F 29.53 in Calm     82 % 0.00 in 0.0 W/m2 CLR
02:00 39.5 °F 34.5 °F 29.53 in Calm     82 % 0.00 in 0.0 W/m2 CLR
02:29 38.3 °F 33.9 °F 29.52 in Calm     84 % 0.00 in 0.0 W/m2 CLR
02:34 38.3 °F 33.9 °F 29.52 in Calm     84 % 0.00 in 0.0 W/m2 CLR
02:39 38.2 °F 33.8 °F 29.51 in Calm     84 % 0.00 in 0.0 W/m2 CLR
02:44 37.8 °F 33.4 °F 29.50 in Calm     84 % 0.00 in 0.0 W/m2 CLR
02:50 37.8 °F 33.7 °F 29.50 in Calm     85 % 0.00 in 0.0 W/m2 CLR
02:55 37.9 °F 33.8 °F 29.50 in Calm     85 % 0.00 in 0.0 W/m2 CLR
03:00 37.9 °F 33.8 °F 29.50 in Calm     85 % 0.00 in 0.0 W/m2 CLR
03:05 37.5 °F 33.4 °F 29.50 in Calm     85 % 0.00 in 0.0 W/m2 CLR
03:10 37.3 °F 33.5 °F 29.50 in Calm     86 % 0.00 in 0.0 W/m2 CLR
03:15 37.4 °F 33.6 °F 29.50 in Calm     86 % 0.00 in 0.0 W/m2 CLR
03:20 37.1 °F 33.3 °F 29.49 in Calm     86 % 0.00 in 0.0 W/m2 CLR
03:25 37.1 °F 33.3 °F 29.50 in Calm     86 % 0.00 in 0.0 W/m2 CLR
03:30 37.0 °F 33.2 °F 29.49 in Calm     86 % 0.00 in 0.0 W/m2 CLR
03:35 37.0 °F 33.5 °F 29.49 in Calm     87 % 0.00 in 0.0 W/m2 CLR
03:40 36.7 °F 32.9 °F 29.50 in Calm     86 % 0.00 in 0.0 W/m2 CLR
03:45 36.3 °F 32.8 °F 29.50 in Calm     87 % 0.00 in 0.0 W/m2 CLR
03:50 36.0 °F 32.5 °F 29.50 in Calm     87 % 0.00 in 0.0 W/m2 CLR
03:55 35.9 °F 32.4 °F 29.50 in Calm     87 % 0.00 in 0.0 W/m2 CLR
04:00 35.9 °F 32.7 °F 29.50 in Calm     88 % 0.00 in 0.0 W/m2 CLR
04:05 36.1 °F 32.9 °F 29.50 in Calm     88 % 0.00 in 0.0 W/m2 CLR
04:10 36.1 °F 32.9 °F 29.49 in Calm     88 % 0.00 in 0.0 W/m2 CLR
04:15 36.2 °F 33.0 °F 29.50 in Calm     88 % 0.00 in 0.0 W/m2 CLR
04:20 36.2 °F 33.0 °F 29.49 in Calm     88 % 0.00 in 0.0 W/m2 CLR
04:25 36.1 °F 32.9 °F 29.48 in Calm     88 % 0.00 in 0.0 W/m2 CLR
04:30 35.6 °F 32.4 °F 29.49 in Calm     88 % 0.00 in 0.0 W/m2 CLR
04:35 35.4 °F 32.2 °F 29.48 in Calm     88 % 0.00 in 0.0 W/m2 CLR
04:40 35.4 °F 32.5 °F 29.48 in Calm     89 % 0.00 in 0.0 W/m2 CLR
04:45 35.5 °F 32.6 °F 29.47 in Calm     89 % 0.00 in 0.0 W/m2 CLR
04:46 35.5 °F 32.6 °F 29.47 in Calm     89 % 0.00 in 0.0 W/m2 CLR
04:51 35.7 °F 32.8 °F 29.47 in Calm     89 % 0.00 in 0.0 W/m2 CLR
04:56 35.5 °F 32.6 °F 29.47 in Calm     89 % 0.00 in 0.0 W/m2 CLR
05:01 35.6 °F 32.7 °F 29.47 in Calm     89 % 0.00 in 0.0 W/m2 CLR
05:06 35.8 °F 32.9 °F 29.47 in Calm     89 % 0.00 in 0.0 W/m2 CLR
05:11 35.9 °F 33.0 °F 29.47 in Calm     89 % 0.00 in 0.0 W/m2 CLR
05:16 36.0 °F 33.1 °F 29.46 in Calm     89 % 0.00 in 0.0 W/m2 CLR
05:21 36.2 °F 33.3 °F 29.46 in Calm     89 % 0.00 in 0.0 W/m2 CLR
05:26 36.4 °F 33.5 °F 29.46 in Calm     89 % 0.00 in 0.0 W/m2 CLR
05:31 36.4 °F 33.5 °F 29.46 in Calm     89 % 0.00 in 0.0 W/m2 CLR
05:36 36.1 °F 33.2 °F 29.45 in Calm     89 % 0.00 in 0.0 W/m2 CLR
05:41 36.1 °F 33.2 °F 29.45 in Calm     89 % 0.00 in 0.0 W/m2 CLR
05:46 36.3 °F 33.4 °F 29.46 in NW 2.1 mph 3.5 mph 89 % 0.00 in 0.0 W/m2 CLR
05:51 36.6 °F 33.7 °F 29.46 in NW 1.9 mph 3.5 mph 89 % 0.00 in 0.0 W/m2 CLR
05:56 36.7 °F 33.8 °F 29.46 in NW 1.2 mph 3.5 mph 89 % 0.00 in 0.0 W/m2 CLR
06:01 37.0 °F 34.1 °F 29.47 in NW 3.0 mph 3.5 mph 89 % 0.00 in 0.0 W/m2 CLR
06:02 37.1 °F 34.2 °F 29.47 in NW 2.6 mph 3.5 mph 89 % 0.00 in 0.0 W/m2 CLR
06:07 37.5 °F 34.6 °F 29.48 in NW 6.4 mph 10.4 mph 89 % 0.00 in 0.0 W/m2 CLR
06:12 38.1 °F 35.1 °F 29.48 in NNW 4.1 mph 5.8 mph 89 % 0.00 in 0.0 W/m2 CLR
06:17 38.6 °F 35.6 °F 29.48 in NW 0.1 mph 2.3 mph 89 % 0.00 in 0.0 W/m2 CLR
06:22 39.1 °F 35.8 °F 29.48 in Calm     88 % 0.00 in 0.0 W/m2 CLR
06:27 39.4 °F 35.9 °F 29.48 in Calm     87 % 0.00 in 0.0 W/m2 CLR
06:32 39.4 °F 35.9 °F 29.49 in NW 0.1 mph 1.2 mph 87 % 0.00 in 0.0 W/m2 CLR
06:37 39.7 °F 35.9 °F 29.49 in Calm     86 % 0.00 in 0.0 W/m2 CLR
06:42 39.9 °F 36.1 °F 29.49 in Calm     86 % 0.00 in 0.0 W/m2 CLR
06:47 40.2 °F 36.3 °F 29.49 in Calm     86 % 0.00 in 0.0 W/m2 CLR
06:52 40.3 °F 36.1 °F 29.49 in Calm     85 % 0.00 in 0.0 W/m2 CLR
06:57 40.4 °F 36.2 °F 29.50 in SW 2.4 mph 3.5 mph 85 % 0.00 in 0.0 W/m2 CLR
07:02 40.2 °F 35.8 °F 29.50 in Calm   1.2 mph 84 % 0.00 in 0.0 W/m2 OVC
07:07 40.0 °F 35.9 °F 29.50 in SW 0.7 mph 2.3 mph 85 % 0.00 in 0.0 W/m2 OVC
07:12 39.9 °F 35.8 °F 29.48 in Calm     85 % 0.00 in 0.0 W/m2 OVC
07:17 39.7 °F 35.6 °F 29.49 in Calm     85 % 0.00 in 0.0 W/m2 OVC
07:22 39.6 °F 35.8 °F 29.48 in Calm     86 % 0.00 in 0.0 W/m2 OVC
07:27 39.6 °F 35.8 °F 29.48 in Calm     86 % 0.00 in 0.0 W/m2 OVC
07:32 39.5 °F 36.0 °F 29.48 in Calm     87 % 0.00 in 0.0 W/m2 OVC
07:37 39.4 °F 35.9 °F 29.48 in Calm     87 % 0.00 in 0.0 W/m2 OVC
07:42 39.3 °F 35.8 °F 29.49 in Calm   1.0 mph 87 % 0.00 in 0.0 W/m2 OVC
07:47 39.3 °F 35.8 °F 29.49 in Calm     87 % 0.00 in 0.0 W/m2 OVC
07:52 39.3 °F 36.0 °F 29.49 in Calm     88 % 0.00 in 9.0 W/m2 BKN
07:57 39.3 °F 36.0 °F 29.48 in Calm     88 % 0.00 in 21.0 W/m2 BKN
08:02 39.4 °F 36.1 °F 29.48 in Calm     88 % 0.00 in 14.0 W/m2 BKN
08:07 39.4 °F 36.1 °F 29.49 in Calm     88 % 0.00 in 11.0 W/m2 OVC
08:12 39.5 °F 36.5 °F 29.48 in Calm     89 % 0.00 in 12.0 W/m2 OVC
08:17 39.7 °F 36.7 °F 29.47 in Calm     89 % 0.01 in 23.0 W/m2 RA
08:22 39.9 °F 36.9 °F 29.46 in Calm     89 % 0.01 in 25.0 W/m2 RA
08:27 40.2 °F 37.5 °F 29.46 in Calm     90 % 0.01 in 26.0 W/m2
08:33 40.2 °F 37.5 °F 29.46 in Calm     90 % 0.01 in 33.0 W/m2 OVC
08:38 40.0 °F 37.0 °F 29.46 in Calm     89 % 0.01 in 30.0 W/m2 OVC
08:43 40.1 °F 37.4 °F 29.46 in Calm     90 % 0.01 in 32.0 W/m2 OVC
08:48 40.1 °F 37.4 °F 29.46 in Calm     90 % 0.01 in 44.0 W/m2 OVC
08:53 40.2 °F 37.5 °F 29.46 in Calm     90 % 0.01 in 58.0 W/m2 BKN
08:58 40.3 °F 37.9 °F 29.45 in Calm     91 % 0.01 in 33.0 W/m2 OVC
09:03 40.6 °F 38.2 °F 29.45 in Calm     91 % 0.01 in 62.0 W/m2 BKN
09:08 40.7 °F 38.3 °F 29.45 in Calm     91 % 0.01 in 105.0 W/m2 SCT
09:13 40.9 °F 38.5 °F 29.45 in Calm     91 % 0.01 in 63.0 W/m2 BKN
09:18 41.0 °F 38.6 °F 29.46 in Calm     91 % 0.00 in 86.0 W/m2 BKN
09:23 41.5 °F 39.3 °F 29.45 in Calm     92 % 0.00 in 54.0 W/m2 OVC
09:28 42.0 °F 39.8 °F 29.46 in Calm     92 % 0.00 in 79.0 W/m2 BKN
09:33 42.2 °F 39.8 °F 29.46 in Calm     91 % 0.00 in 95.0 W/m2 BKN
09:38 42.6 °F 40.4 °F 29.45 in WSW 0.6 mph 1.2 mph 92 % 0.00 in 171.0 W/m2 SCT
09:43 43.3 °F 41.1 °F 29.46 in WSW 0.2 mph 3.5 mph 92 % 0.00 in 218.0 W/m2 CLR
09:48 44.0 °F 41.5 °F 29.46 in SW 1.1 mph 3.5 mph 91 % 0.00 in 195.0 W/m2 FEW
09:53 44.6 °F 42.1 °F 29.46 in SW 1.1 mph 3.5 mph 91 % 0.00 in 346.0 W/m2 CLR
09:58 45.3 °F 42.5 °F 29.45 in SW 1.9 mph 4.6 mph 90 % 0.00 in 301.0 W/m2 CLR
10:03 46.2 °F 43.1 °F 29.45 in WSW 4.3 mph 6.9 mph 89 % 0.00 in 367.0 W/m2 CLR
10:08 47.1 °F 43.7 °F 29.45 in West 4.5 mph 11.5 mph 88 % 0.00 in 248.0 W/m2 FEW
10:13 47.7 °F 44.0 °F 29.45 in WSW 4.9 mph 10.4 mph 87 % 0.00 in 301.0 W/m2 FEW
10:18 48.1 °F 43.8 °F 29.45 in WSW 8.7 mph 16.0 mph 85 % 0.00 in 380.0 W/m2 CLR
10:23 48.6 °F 43.7 °F 29.45 in WNW 7.9 mph 13.0 mph 83 % 0.00 in 253.0 W/m2 CLR
10:28 49.3 °F 43.7 °F 29.44 in WNW 8.3 mph 15.0 mph 81 % 0.00 in 427.0 W/m2 FEW
10:33 50.1 °F 42.8 °F 29.44 in West 13.9 mph 25.3 mph 76 % 0.00 in 304.0 W/m2 SCT
10:38 50.0 °F 41.7 °F 29.44 in West 10.4 mph 13.8 mph 73 % 0.00 in 199.0 W/m2 SCT
10:43 50.2 °F 40.8 °F 29.43 in West 15.6 mph 31.1 mph 70 % 0.00 in 338.0 W/m2 SCT
10:48 50.5 °F 39.6 °F 29.43 in West 16.8 mph 26.5 mph 66 % 0.00 in 308.0 W/m2 FEW
10:53 50.8 °F 39.1 °F 29.43 in West 16.1 mph 20.7 mph 64 % 0.00 in 360.0 W/m2 CLR
10:58 50.9 °F 38.7 °F 29.43 in West 14.7 mph 21.9 mph 63 % 0.00 in 425.0 W/m2 FEW
11:03 51.2 °F 38.6 °F 29.43 in West 10.0 mph 16.1 mph 62 % 0.00 in 353.0 W/m2 CLR
11:08 51.3 °F 37.9 °F 29.43 in WSW 12.0 mph 24.0 mph 60 % 0.00 in 446.0 W/m2 CLR
11:13 51.4 °F 37.5 °F 29.43 in WSW 10.9 mph 19.6 mph 59 % 0.00 in 371.0 W/m2 FEW
11:18 51.6 °F 37.7 °F 29.43 in WSW 12.9 mph 27.6 mph 59 % 0.00 in 410.0 W/m2 CLR
11:24 51.8 °F 37.0 °F 29.43 in West 16.4 mph 21.9 mph 57 % 0.00 in 647.0 W/m2 CLR
11:29 51.9 °F 36.7 °F 29.43 in WNW 11.1 mph 28.8 mph 56 % 0.00 in 619.0 W/m2 CLR
11:34 51.9 °F 35.8 °F 29.43 in WNW 14.2 mph 24.2 mph 54 % 0.00 in 664.0 W/m2 CLR
11:39 51.5 °F 35.9 °F 29.43 in West 16.6 mph 19.6 mph 55 % 0.00 in 664.0 W/m2 CLR
11:44 51.5 °F 35.9 °F 29.42 in SW 11.8 mph 18.4 mph 55 % 0.00 in 564.0 W/m2 CLR
11:49 51.6 °F 35.0 °F 29.42 in West 17.5 mph 26.5 mph 53 % 0.00 in 550.0 W/m2 CLR
11:54 51.5 °F 35.4 °F 29.42 in West 14.7 mph 18.4 mph 54 % 0.00 in 621.0 W/m2 CLR
11:59 51.6 °F 35.9 °F 29.42 in West 13.4 mph 24.2 mph 55 % 0.00 in 139.0 W/m2 BKN
12:04 51.1 °F 35.0 °F 29.42 in West 16.7 mph 27.6 mph 54 % 0.00 in 134.0 W/m2 SCT
12:09 50.6 °F 34.6 °F 29.42 in SW 15.0 mph 20.7 mph 54 % 0.00 in 181.0 W/m2 BKN
12:14 50.5 °F 34.9 °F 29.42 in West 10.0 mph 15.0 mph 55 % 0.00 in 221.0 W/m2 SCT
12:24 50.3 °F 33.8 °F 29.41 in WNW 14.5 mph 26.5 mph 53 % 0.00 in 146.0 W/m2 BKN
12:29 50.3 °F 34.7 °F 29.41 in West 10.2 mph 14.0 mph 55 % 0.00 in 141.0 W/m2 BKN
12:34 49.9 °F 33.9 °F 29.42 in WNW 16.4 mph 26.5 mph 54 % 0.00 in 236.0 W/m2 SCT
12:39 49.8 °F 34.3 °F 29.42 in West 17.1 mph 28.0 mph 55 % 0.00 in 193.0 W/m2 BKN
12:44 49.4 °F 33.9 °F 29.42 in West 16.2 mph 20.7 mph 55 % 0.00 in 327.0 W/m2 SCT
12:49 49.2 °F 33.7 °F 29.42 in West 14.3 mph 21.9 mph 55 % 0.00 in 193.0 W/m2 BKN
12:54 48.9 °F 33.4 °F 29.42 in West 18.9 mph 29.9 mph 55 % 0.00 in 163.0 W/m2 BKN
12:59 48.5 °F 33.1 °F 29.42 in West 17.3 mph 24.2 mph 55 % 0.00 in 236.0 W/m2 SCT
13:04 48.9 °F 33.4 °F 29.42 in West 16.7 mph 21.9 mph 55 % 0.00 in 218.0 W/m2 SCT
13:09 49.0 °F 33.5 °F 29.43 in NW 17.6 mph 26.5 mph 55 % 0.00 in 510.0 W/m2 CLR
13:14 48.3 °F 32.9 °F 29.44 in WNW 14.4 mph 31.1 mph 55 % 0.00 in 494.0 W/m2 CLR
13:19 47.6 °F 31.8 °F 29.44 in West 20.3 mph 27.6 mph 54 % 0.00 in 227.0 W/m2 SCT
13:24 46.8 °F 30.6 °F 29.45 in West 17.9 mph 26.5 mph 53 % 0.00 in 172.0 W/m2 BKN
13:29 46.2 °F 30.0 °F 29.45 in West 17.8 mph 26.0 mph 53 % 0.00 in 155.0 W/m2 BKN
13:34 45.7 °F 30.0 °F 29.46 in West 12.1 mph 20.7 mph 54 % 0.00 in 171.0 W/m2 BKN
13:39 45.6 °F 29.4 °F 29.45 in West 18.7 mph 29.9 mph 53 % 0.00 in 178.0 W/m2 BKN
13:44 45.4 °F 29.3 °F 29.46 in West 14.6 mph 26.5 mph 53 % 0.00 in 195.0 W/m2 SCT
13:49 45.5 °F 28.9 °F 29.46 in SW 18.4 mph 27.6 mph 52 % 0.00 in 181.0 W/m2 SCT
13:54 45.2 °F 28.6 °F 29.46 in West 16.1 mph 26.5 mph 52 % 0.00 in 188.0 W/m2 SCT
13:59 45.1 °F 28.5 °F 29.47 in West 18.0 mph 26.5 mph 52 % 0.00 in 160.0 W/m2 BKN
14:04 45.1 °F 28.5 °F 29.47 in WSW 14.5 mph 26.5 mph 52 % 0.00 in 176.0 W/m2 BKN
14:09 45.1 °F 28.5 °F 29.47 in WNW 15.8 mph 26.5 mph 52 % 0.00 in 135.0 W/m2 BKN
14:14 45.2 °F 28.6 °F 29.47 in West 12.7 mph 20.7 mph 52 % 0.00 in 185.0 W/m2 SCT
14:19 45.8 °F 29.2 °F 29.47 in WSW 14.8 mph 22.0 mph 52 % 0.00 in 190.0 W/m2 SCT
14:24 45.6 °F 29.4 °F 29.48 in West 17.4 mph 20.0 mph 53 % 0.00 in 141.0 W/m2 BKN
14:29 45.3 °F 28.7 °F 29.48 in West 13.4 mph 20.7 mph 52 % 0.00 in 86.0 W/m2 BKN
14:34 44.8 °F 29.2 °F 29.49 in WSW 15.2 mph 23.0 mph 54 % 0.00 in 69.0 W/m2 OVC
14:39 44.4 °F 28.8 °F 29.49 in West 18.7 mph 23.0 mph 54 % 0.00 in 58.0 W/m2 OVC
14:44 44.1 °F 29.4 °F 29.49 in WSW 16.1 mph 26.5 mph 56 % 0.00 in 74.0 W/m2 OVC
14:49 43.6 °F 28.9 °F 29.49 in WSW 19.4 mph 34.5 mph 56 % 0.00 in 86.0 W/m2 OVC
14:54 43.3 °F 29.5 °F 29.49 in West 25.0 mph 36.8 mph 58 % 0.00 in 109.0 W/m2 BKN
14:59 43.2 °F 29.4 °F 29.50 in WSW 16.9 mph 26.5 mph 58 % 0.00 in 169.0 W/m2 SCT
15:04 43.3 °F 29.5 °F 29.50 in West 15.8 mph 26.5 mph 58 % 0.00 in 121.0 W/m2 SCT
15:09 43.5 °F 30.1 °F 29.50 in West 11.6 mph 21.0 mph 59 % 0.00 in 230.0 W/m2 CLR
15:14 43.5 °F 29.3 °F 29.50 in WNW 8.6 mph 24.2 mph 57 % 0.00 in 120.0 W/m2 SCT
15:20 43.2 °F 29.0 °F 29.50 in West 13.9 mph 24.2 mph 57 % 0.00 in 91.0 W/m2 BKN
15:25 43.1 °F 29.3 °F 29.50 in West 14.8 mph 21.9 mph 58 % 0.00 in 74.0 W/m2 BKN
15:30 43.0 °F 29.2 °F 29.50 in West 10.3 mph 12.7 mph 58 % 0.00 in 76.0 W/m2 BKN
15:35 43.0 °F 29.2 °F 29.50 in WSW 11.6 mph 18.4 mph 58 % 0.00 in 67.0 W/m2 BKN
15:40 42.9 °F 29.5 °F 29.50 in WSW 10.0 mph 19.6 mph 59 % 0.00 in 69.0 W/m2 BKN
15:45 42.9 °F 29.5 °F 29.51 in West 11.1 mph 15.0 mph 59 % 0.00 in 54.0 W/m2 BKN
15:50 42.9 °F 29.5 °F 29.51 in West 10.5 mph 17.3 mph 59 % 0.00 in 53.0 W/m2 BKN
15:55 42.8 °F 29.5 °F 29.51 in West 15.0 mph 26.0 mph 59 % 0.00 in 47.0 W/m2 OVC
16:00 42.7 °F 29.4 °F 29.51 in West 12.7 mph 25.3 mph 59 % 0.00 in 37.0 W/m2 BKN
16:05 42.6 °F 29.3 °F 29.51 in WSW 16.4 mph 29.9 mph 59 % 0.00 in 39.0 W/m2 BKN
16:10 42.6 °F 29.3 °F 29.51 in WNW 12.7 mph 17.3 mph 59 % 0.00 in 51.0 W/m2 BKN
16:15 42.6 °F 29.3 °F 29.51 in NW 10.5 mph 17.3 mph 59 % 0.00 in 53.0 W/m2 SCT
16:20 42.6 °F 29.7 °F 29.51 in WNW 13.1 mph 18.4 mph 60 % 0.00 in 39.0 W/m2 BKN
16:25 42.6 °F 29.3 °F 29.51 in West 11.4 mph 19.6 mph 59 % 0.00 in 25.0 W/m2 BKN
16:30 42.5 °F 29.2 °F 29.51 in West 10.5 mph 17.3 mph 59 % 0.00 in 30.0 W/m2 BKN
16:35 42.5 °F 29.2 °F 29.51 in West 9.9 mph 19.6 mph 59 % 0.00 in 23.0 W/m2 BKN
16:40 42.6 °F 29.3 °F 29.51 in WNW 11.9 mph 19.6 mph 59 % 0.00 in 28.0 W/m2 SCT
16:45 42.6 °F 29.3 °F 29.51 in WNW 11.6 mph 19.6 mph 59 % 0.00 in 23.0 W/m2 SCT
16:50 42.5 °F 29.2 °F 29.51 in NW 14.1 mph 19.6 mph 59 % 0.00 in 16.0 W/m2 SCT
16:55 42.4 °F 29.5 °F 29.51 in WSW 15.5 mph 19.6 mph 60 % 0.00 in 9.0 W/m2 SCT
17:00 42.4 °F 29.5 °F 29.51 in WSW 8.1 mph 22.0 mph 60 % 0.00 in 7.0 W/m2 SCT
17:05 42.3 °F 29.4 °F 29.52 in WNW 11.0 mph 15.0 mph 60 % 0.00 in 7.0 W/m2 CLR
17:10 42.4 °F 29.1 °F 29.51 in WSW 5.9 mph 13.8 mph 59 % 0.00 in 5.0 W/m2 OVC
17:15 42.4 °F 29.1 °F 29.51 in West 14.3 mph 23.0 mph 59 % 0.00 in 0.0 W/m2 OVC
17:20 42.4 °F 29.1 °F 29.51 in WSW 8.2 mph 16.1 mph 59 % 0.00 in 0.0 W/m2 OVC
17:25 42.3 °F 29.0 °F 29.51 in WSW 9.5 mph 12.7 mph 59 % 0.00 in 0.0 W/m2 OVC
17:30 42.2 °F 28.9 °F 29.52 in WSW 10.9 mph 16.1 mph 59 % 0.00 in 0.0 W/m2 OVC
17:35 42.2 °F 28.9 °F 29.52 in WSW 15.6 mph 19.6 mph 59 % 0.00 in 0.0 W/m2 OVC
17:40 42.2 °F 28.9 °F 29.52 in West 12.4 mph 19.6 mph 59 % 0.00 in 0.0 W/m2 OVC
17:45 42.3 °F 29.4 °F 29.52 in West 13.9 mph 24.0 mph 60 % 0.00 in 0.0 W/m2 CLR
17:50 42.5 °F 29.2 °F 29.53 in West 10.9 mph 16.1 mph 59 % 0.00 in 0.0 W/m2 CLR
17:55 42.5 °F 29.2 °F 29.53 in West 13.6 mph 26.5 mph 59 % 0.00 in 0.0 W/m2 CLR
18:00 42.6 °F 29.3 °F 29.54 in West 9.0 mph 27.6 mph 59 % 0.00 in 0.0 W/m2 CLR
18:06 42.7 °F 29.4 °F 29.53 in NW 12.6 mph 17.3 mph 59 % 0.00 in 0.0 W/m2 CLR
18:11 42.7 °F 29.4 °F 29.53 in WSW 10.0 mph 19.6 mph 59 % 0.00 in 0.0 W/m2 CLR
18:16 42.7 °F 29.4 °F 29.54 in SW 11.5 mph 20.7 mph 59 % 0.00 in 0.0 W/m2 CLR
18:21 42.7 °F 29.4 °F 29.54 in WNW 14.8 mph 18.4 mph 59 % 0.00 in 0.0 W/m2 CLR
18:26 42.6 °F 29.3 °F 29.54 in WSW 14.1 mph 18.0 mph 59 % 0.00 in 0.0 W/m2 CLR
18:31 42.5 °F 29.6 °F 29.55 in WSW 18.4 mph 25.3 mph 60 % 0.00 in 0.0 W/m2 CLR
18:36 42.5 °F 29.6 °F 29.55 in WSW 6.1 mph 29.9 mph 60 % 0.00 in 0.0 W/m2 CLR
18:41 42.3 °F 29.4 °F 29.55 in West 12.8 mph 19.6 mph 60 % 0.00 in 0.0 W/m2 CLR
18:46 42.2 °F 29.3 °F 29.55 in West 15.4 mph 23.0 mph 60 % 0.00 in 0.0 W/m2 CLR
18:52 42.1 °F 29.6 °F 29.55 in WSW 13.1 mph 16.1 mph 61 % 0.00 in 0.0 W/m2 CLR
18:57 42.0 °F 29.5 °F 29.56 in WSW 12.6 mph 19.6 mph 61 % 0.00 in 0.0 W/m2 CLR
18:59 42.0 °F 29.5 °F 29.56 in West 10.0 mph 13.8 mph 61 % 0.00 in 0.0 W/m2 CLR
19:00 42.0 °F 29.5 °F 29.56 in West 11.5 mph 20.0 mph 61 % 0.00 in 0.0 W/m2 CLR
19:10 42.0 °F 29.9 °F 29.56 in West 17.6 mph 29.9 mph 62 % 0.00 in 0.0 W/m2 CLR
19:15 42.1 °F 30.0 °F 29.57 in West 11.7 mph 19.6 mph 62 % 0.00 in 0.0 W/m2 CLR
19:21 42.1 °F 30.0 °F 29.57 in WNW 12.6 mph 17.3 mph 62 % 0.00 in 0.0 W/m2 CLR
19:26 42.1 °F 30.4 °F 29.57 in West 13.7 mph 29.9 mph 63 % 0.00 in 0.0 W/m2 CLR
19:31 42.1 °F 30.4 °F 29.57 in WNW 15.3 mph 21.9 mph 63 % 0.00 in 0.0 W/m2 CLR
19:36 42.0 °F 30.7 °F 29.57 in West 13.3 mph 25.0 mph 64 % 0.00 in 0.0 W/m2 CLR
19:41 41.8 °F 30.9 °F 29.57 in West 12.5 mph 24.2 mph 65 % 0.00 in 0.0 W/m2 CLR
19:46 41.6 °F 31.1 °F 29.57 in West 15.0 mph 26.5 mph 66 % 0.00 in 0.0 W/m2 CLR
19:51 41.4 °F 30.9 °F 29.57 in West 11.2 mph 16.1 mph 66 % 0.00 in 0.0 W/m2 CLR
19:56 41.3 °F 30.8 °F 29.58 in WSW 11.0 mph 18.0 mph 66 % 0.00 in 0.0 W/m2 CLR
20:01 41.3 °F 30.8 °F 29.58 in West 16.5 mph 25.3 mph 66 % 0.00 in 0.0 W/m2 CLR
20:06 41.3 °F 30.4 °F 29.59 in WNW 9.3 mph 16.1 mph 65 % 0.00 in 0.0 W/m2 CLR
20:11 41.3 °F 30.8 °F 29.59 in West 10.4 mph 23.0 mph 66 % 0.00 in 0.0 W/m2 CLR
20:16 41.3 °F 30.4 °F 29.59 in WSW 9.3 mph 18.0 mph 65 % 0.00 in 0.0 W/m2 CLR
20:21 41.4 °F 30.5 °F 29.60 in West 12.6 mph 17.3 mph 65 % 0.00 in 0.0 W/m2 CLR
20:26 41.4 °F 30.5 °F 29.60 in WNW 11.6 mph 16.1 mph 65 % 0.00 in 0.0 W/m2 CLR
20:31 41.4 °F 30.5 °F 29.60 in WSW 9.4 mph 11.5 mph 65 % 0.00 in 0.0 W/m2 CLR
20:36 41.3 °F 30.4 °F 29.60 in WNW 10.2 mph 11.5 mph 65 % 0.00 in 0.0 W/m2 CLR
20:41 41.3 °F 30.0 °F 29.60 in SW 6.0 mph 9.2 mph 64 % 0.00 in 0.0 W/m2 CLR
20:46 41.2 °F 29.9 °F 29.61 in WNW 10.5 mph 16.1 mph 64 % 0.00 in 0.0 W/m2 CLR
20:51 41.3 °F 29.6 °F 29.61 in WNW 11.5 mph 18.4 mph 63 % 0.00 in 0.0 W/m2 CLR
20:56 41.3 °F 29.6 °F 29.61 in West 16.1 mph 20.0 mph 63 % 0.00 in 0.0 W/m2 CLR
21:01 41.3 °F 29.6 °F 29.62 in WNW 12.1 mph 21.9 mph 63 % 0.00 in 0.0 W/m2 CLR
21:06 41.2 °F 29.5 °F 29.62 in WSW 8.5 mph 14.0 mph 63 % 0.00 in 0.0 W/m2 CLR
21:11 41.0 °F 29.4 °F 29.62 in WSW 12.1 mph 19.6 mph 63 % 0.00 in 0.0 W/m2 CLR
21:17 41.0 °F 29.4 °F 29.62 in WNW 10.8 mph 16.1 mph 63 % 0.00 in 0.0 W/m2 CLR
21:22 40.8 °F 29.6 °F 29.62 in WSW 12.5 mph 18.4 mph 64 % 0.00 in 0.0 W/m2 CLR
21:27 40.6 °F 29.4 °F 29.62 in WNW 12.7 mph 18.4 mph 64 % 0.00 in 0.0 W/m2 CLR
21:32 40.5 °F 29.3 °F 29.63 in West 9.7 mph 14.0 mph 64 % 0.00 in 0.0 W/m2 CLR
21:37 40.3 °F 29.1 °F 29.63 in West 8.7 mph 12.0 mph 64 % 0.00 in 0.0 W/m2 CLR
21:42 40.3 °F 29.1 °F 29.63 in WNW 12.6 mph 18.4 mph 64 % 0.00 in 0.0 W/m2 CLR
21:47 40.3 °F 29.1 °F 29.63 in West 10.5 mph 16.1 mph 64 % 0.00 in 0.0 W/m2 CLR
21:52 40.4 °F 29.2 °F 29.64 in West 9.8 mph 17.3 mph 64 % 0.00 in 0.0 W/m2 CLR
21:57 40.4 °F 29.2 °F 29.64 in WSW 11.7 mph 19.6 mph 64 % 0.00 in 0.0 W/m2 CLR
22:02 40.3 °F 29.1 °F 29.64 in West 11.4 mph 21.9 mph 64 % 0.00 in 0.0 W/m2 CLR
22:07 40.3 °F 29.1 °F 29.65 in West 8.2 mph 13.8 mph 64 % 0.00 in 0.0 W/m2 CLR
22:14 40.3 °F 29.5 °F 29.65 in WSW 10.9 mph 19.6 mph 65 % 0.00 in 0.0 W/m2 CLR
22:19 40.5 °F 29.7 °F 29.65 in WNW 13.6 mph 17.3 mph 65 % 0.00 in 0.0 W/m2 CLR
22:24 40.7 °F 29.8 °F 29.65 in WNW 10.8 mph 18.4 mph 65 % 0.00 in 0.0 W/m2 CLR
22:25 40.7 °F 29.8 °F 29.65 in West 14.2 mph 19.6 mph 65 % 0.00 in 0.0 W/m2 CLR
22:30 40.7 °F 29.8 °F 29.65 in West 7.5 mph 11.5 mph 65 % 0.00 in 0.0 W/m2 CLR
22:35 40.4 °F 29.6 °F 29.65 in WSW 5.0 mph 9.2 mph 65 % 0.00 in 0.0 W/m2 CLR
22:40 40.2 °F 29.7 °F 29.65 in WSW 8.4 mph 11.5 mph 66 % 0.00 in 0.0 W/m2 CLR
22:45 40.0 °F 29.9 °F 29.65 in West 2.9 mph 8.0 mph 67 % 0.00 in 0.0 W/m2 CLR
22:50 39.7 °F 29.6 °F 29.66 in WSW 5.7 mph 10.0 mph 67 % 0.00 in 0.0 W/m2 CLR
22:55 39.7 °F 30.0 °F 29.65 in WNW 11.8 mph 18.4 mph 68 % 0.00 in 0.0 W/m2 CLR
23:00 39.9 °F 30.2 °F 29.66 in West 8.5 mph 13.8 mph 68 % 0.00 in 0.0 W/m2 CLR
23:05 39.8 °F 30.1 °F 29.66 in WSW 10.3 mph 15.0 mph 68 % 0.00 in 0.0 W/m2 CLR
23:10 39.8 °F 30.5 °F 29.66 in WSW 6.7 mph 9.2 mph 69 % 0.00 in 0.0 W/m2 CLR
23:15 39.7 °F 30.4 °F 29.66 in WSW 13.1 mph 16.1 mph 69 % 0.00 in 0.0 W/m2 CLR
23:20 39.7 °F 30.4 °F 29.66 in WSW 10.2 mph 15.0 mph 69 % 0.00 in 0.0 W/m2 CLR
23:25 39.7 °F 30.7 °F 29.66 in West 13.5 mph 17.0 mph 70 % 0.00 in 0.0 W/m2 CLR
23:30 39.7 °F 30.7 °F 29.66 in WNW 8.7 mph 10.4 mph 70 % 0.00 in 0.0 W/m2 CLR
23:35 39.6 °F 30.6 °F 29.66 in West 8.2 mph 12.7 mph 70 % 0.00 in 0.0 W/m2 CLR
23:40 39.6 °F 30.6 °F 29.67 in SW 10.0 mph 15.0 mph 70 % 0.00 in 0.0 W/m2 CLR
23:45 39.7 °F 30.7 °F 29.66 in SW 11.7 mph 12.0 mph 70 % 0.00 in 0.0 W/m2 CLR
23:50 39.8 °F 30.5 °F 29.67 in West 8.2 mph 13.8 mph 69 % 0.00 in 0.0 W/m2 CLR
23:56 39.8 °F 30.5 °F 29.67 in WSW 8.2 mph 9.2 mph 69 % 0.00 in 0.0 W/m2 CLR
Air Products Campus Weather
Compliments of Weather Underground - 3.25 mb